sensor_id;sensor_type;location;lat;lon;timestamp;P1;durP1;ratioP1;P2;durP2;ratioP2
47617;SDS011;33336;36.728;-4.414;2022-09-12T00:02:35;6.90;;;3.20;;
47617;SDS011;33336;36.728;-4.414;2022-09-12T00:07:39;7.25;;;3.30;;
47617;SDS011;33336;36.728;-4.414;2022-09-12T00:12:41;11.18;;;5.10;;
47617;SDS011;33336;36.728;-4.414;2022-09-12T00:17:46;7.90;;;3.88;;
47617;SDS011;33336;36.728;-4.414;2022-09-12T00:22:49;4.10;;;1.92;;
47617;SDS011;33336;36.728;-4.414;2022-09-12T00:27:52;7.50;;;1.52;;
47617;SDS011;33336;36.728;-4.414;2022-09-12T00:32:56;5.35;;;1.77;;
47617;SDS011;33336;36.728;-4.414;2022-09-12T00:38:00;11.57;;;2.25;;
47617;SDS011;33336;36.728;-4.414;2022-09-12T00:43:03;7.38;;;2.42;;
47617;SDS011;33336;36.728;-4.414;2022-09-12T00:48:12;7.85;;;2.03;;
47617;SDS011;33336;36.728;-4.414;2022-09-12T00:53:22;8.02;;;2.30;;
47617;SDS011;33336;36.728;-4.414;2022-09-12T00:58:27;5.75;;;2.03;;
47617;SDS011;33336;36.728;-4.414;2022-09-12T01:03:34;7.50;;;2.50;;
47617;SDS011;33336;36.728;-4.414;2022-09-12T01:08:38;5.75;;;2.22;;
47617;SDS011;33336;36.728;-4.414;2022-09-12T01:13:42;11.77;;;3.17;;
47617;SDS011;33336;36.728;-4.414;2022-09-12T01:18:52;5.95;;;2.63;;
47617;SDS011;33336;36.728;-4.414;2022-09-12T01:24:11;6.10;;;2.78;;
47617;SDS011;33336;36.728;-4.414;2022-09-12T01:29:50;12.70;;;3.38;;
47617;SDS011;33336;36.728;-4.414;2022-09-12T01:35:06;7.72;;;2.97;;
47617;SDS011;33336;36.728;-4.414;2022-09-12T01:40:18;10.40;;;3.13;;
47617;SDS011;33336;36.728;-4.414;2022-09-12T01:45:25;8.45;;;3.47;;
47617;SDS011;33336;36.728;-4.414;2022-09-12T01:50:34;10.95;;;2.80;;
47617;SDS011;33336;36.728;-4.414;2022-09-12T01:55:45;12.43;;;2.30;;
47617;SDS011;33336;36.728;-4.414;2022-09-12T02:00:54;5.90;;;2.42;;
47617;SDS011;33336;36.728;-4.414;2022-09-12T02:06:04;8.13;;;2.35;;
47617;SDS011;33336;36.728;-4.414;2022-09-12T02:11:14;6.55;;;2.50;;
47617;SDS011;33336;36.728;-4.414;2022-09-12T02:16:17;6.40;;;2.97;;
47617;SDS011;33336;36.728;-4.414;2022-09-12T02:21:25;7.10;;;2.60;;
47617;SDS011;33336;36.728;-4.414;2022-09-12T02:26:33;9.32;;;2.70;;
47617;SDS011;33336;36.728;-4.414;2022-09-12T02:31:43;5.07;;;1.92;;
47617;SDS011;33336;36.728;-4.414;2022-09-12T02:36:51;8.18;;;2.25;;
47617;SDS011;33336;36.728;-4.414;2022-09-12T02:42:03;7.97;;;2.90;;
47617;SDS011;33336;36.728;-4.414;2022-09-12T02:47:07;8.85;;;2.95;;
47617;SDS011;33336;36.728;-4.414;2022-09-12T02:52:15;10.77;;;2.85;;
47617;SDS011;33336;36.728;-4.414;2022-09-12T02:57:19;5.90;;;1.90;;
47617;SDS011;33336;36.728;-4.414;2022-09-12T03:02:25;5.28;;;1.95;;
47617;SDS011;33336;36.728;-4.414;2022-09-12T03:07:37;10.23;;;2.78;;
47617;SDS011;33336;36.728;-4.414;2022-09-12T03:12:52;10.05;;;3.88;;
47617;SDS011;33336;36.728;-4.414;2022-09-12T03:18:05;8.77;;;3.42;;
47617;SDS011;33336;36.728;-4.414;2022-09-12T03:23:25;15.80;;;5.97;;
47617;SDS011;33336;36.728;-4.414;2022-09-12T03:28:33;15.13;;;7.18;;
47617;SDS011;33336;36.728;-4.414;2022-09-12T03:33:38;13.20;;;5.43;;
47617;SDS011;33336;36.728;-4.414;2022-09-12T03:38:43;8.73;;;6.45;;
47617;SDS011;33336;36.728;-4.414;2022-09-12T03:43:45;15.27;;;6.22;;
47617;SDS011;33336;36.728;-4.414;2022-09-12T03:48:48;9.98;;;6.38;;
47617;SDS011;33336;36.728;-4.414;2022-09-12T03:53:53;14.52;;;7.32;;
47617;SDS011;33336;36.728;-4.414;2022-09-12T03:58:56;14.00;;;6.13;;
47617;SDS011;33336;36.728;-4.414;2022-09-12T04:04:00;13.40;;;5.28;;
47617;SDS011;33336;36.728;-4.414;2022-09-12T04:09:04;12.10;;;5.07;;
47617;SDS011;33336;36.728;-4.414;2022-09-12T04:14:07;13.57;;;6.03;;
47617;SDS011;33336;36.728;-4.414;2022-09-12T04:19:10;12.38;;;5.13;;
47617;SDS011;33336;36.728;-4.414;2022-09-12T04:24:15;12.63;;;5.47;;
47617;SDS011;33336;36.728;-4.414;2022-09-12T04:29:18;9.48;;;5.63;;
47617;SDS011;33336;36.728;-4.414;2022-09-12T04:34:22;12.13;;;6.10;;
47617;SDS011;33336;36.728;-4.414;2022-09-12T04:39:26;12.45;;;5.68;;
47617;SDS011;33336;36.728;-4.414;2022-09-12T04:44:30;14.30;;;6.68;;
47617;SDS011;33336;36.728;-4.414;2022-09-12T04:49:32;7.47;;;4.82;;
47617;SDS011;33336;36.728;-4.414;2022-09-12T04:54:38;11.32;;;5.43;;
47617;SDS011;33336;36.728;-4.414;2022-09-12T04:59:41;9.93;;;5.50;;
47617;SDS011;33336;36.728;-4.414;2022-09-12T05:04:45;12.55;;;5.15;;
47617;SDS011;33336;36.728;-4.414;2022-09-12T05:09:49;16.40;;;5.78;;
47617;SDS011;33336;36.728;-4.414;2022-09-12T05:14:52;12.10;;;5.10;;
47617;SDS011;33336;36.728;-4.414;2022-09-12T05:19:54;9.85;;;4.40;;
47617;SDS011;33336;36.728;-4.414;2022-09-12T05:24:59;11.15;;;4.82;;
47617;SDS011;33336;36.728;-4.414;2022-09-12T05:30:02;14.45;;;5.30;;
47617;SDS011;33336;36.728;-4.414;2022-09-12T05:35:06;16.00;;;5.65;;
47617;SDS011;33336;36.728;-4.414;2022-09-12T05:40:11;8.73;;;4.50;;
47617;SDS011;33336;36.728;-4.414;2022-09-12T05:45:17;20.08;;;4.95;;
47617;SDS011;33336;36.728;-4.414;2022-09-12T05:50:21;7.85;;;3.92;;
47617;SDS011;33336;36.728;-4.414;2022-09-12T05:55:27;8.88;;;4.72;;
47617;SDS011;33336;36.728;-4.414;2022-09-12T06:00:30;9.02;;;3.83;;
47617;SDS011;33336;36.728;-4.414;2022-09-12T06:05:33;10.40;;;4.47;;
47617;SDS011;33336;36.728;-4.414;2022-09-12T06:10:38;15.63;;;4.70;;
47617;SDS011;33336;36.728;-4.414;2022-09-12T06:15:41;11.02;;;4.20;;
47617;SDS011;33336;36.728;-4.414;2022-09-12T06:20:43;14.13;;;5.00;;
47617;SDS011;33336;36.728;-4.414;2022-09-12T06:25:48;11.90;;;4.50;;
47617;SDS011;33336;36.728;-4.414;2022-09-12T06:30:51;20.95;;;4.78;;
47617;SDS011;33336;36.728;-4.414;2022-09-12T06:35:54;14.52;;;3.92;;
47617;SDS011;33336;36.728;-4.414;2022-09-12T06:40:59;11.45;;;4.32;;
47617;SDS011;33336;36.728;-4.414;2022-09-12T06:51:09;10.98;;;3.60;;
47617;SDS011;33336;36.728;-4.414;2022-09-12T06:56:15;7.72;;;2.70;;
47617;SDS011;33336;36.728;-4.414;2022-09-12T07:01:20;9.70;;;2.73;;
47617;SDS011;33336;36.728;-4.414;2022-09-12T07:06:25;7.07;;;2.67;;
47617;SDS011;33336;36.728;-4.414;2022-09-12T07:11:33;7.57;;;2.50;;
47617;SDS011;33336;36.728;-4.414;2022-09-12T07:16:38;11.17;;;2.70;;
47617;SDS011;33336;36.728;-4.414;2022-09-12T07:21:41;15.18;;;3.25;;
47617;SDS011;33336;36.728;-4.414;2022-09-12T07:26:47;12.82;;;3.03;;
47617;SDS011;33336;36.728;-4.414;2022-09-12T07:31:50;11.52;;;2.17;;
47617;SDS011;33336;36.728;-4.414;2022-09-12T07:36:53;15.10;;;3.05;;
47617;SDS011;33336;36.728;-4.414;2022-09-12T07:41:58;12.30;;;2.67;;
47617;SDS011;33336;36.728;-4.414;2022-09-12T07:47:01;12.75;;;3.25;;
47617;SDS011;33336;36.728;-4.414;2022-09-12T07:52:05;10.85;;;3.40;;
47617;SDS011;33336;36.728;-4.414;2022-09-12T07:57:10;10.18;;;2.67;;
47617;SDS011;33336;36.728;-4.414;2022-09-12T08:02:13;7.50;;;2.85;;
47617;SDS011;33336;36.728;-4.414;2022-09-12T08:07:16;7.10;;;3.00;;
47617;SDS011;33336;36.728;-4.414;2022-09-12T08:12:22;12.07;;;3.45;;
47617;SDS011;33336;36.728;-4.414;2022-09-12T08:17:25;8.55;;;2.55;;
47617;SDS011;33336;36.728;-4.414;2022-09-12T08:22:29;12.52;;;2.47;;
47617;SDS011;33336;36.728;-4.414;2022-09-12T08:27:34;14.70;;;2.25;;
47617;SDS011;33336;36.728;-4.414;2022-09-12T08:32:37;20.88;;;2.22;;
47617;SDS011;33336;36.728;-4.414;2022-09-12T08:37:40;9.93;;;2.38;;
47617;SDS011;33336;36.728;-4.414;2022-09-12T08:42:48;11.00;;;3.08;;
47617;SDS011;33336;36.728;-4.414;2022-09-12T08:48:01;4.97;;;2.03;;
47617;SDS011;33336;36.728;-4.414;2022-09-12T08:53:09;4.50;;;2.67;;
47617;SDS011;33336;36.728;-4.414;2022-09-12T08:58:19;5.45;;;2.05;;
47617;SDS011;33336;36.728;-4.414;2022-09-12T09:03:27;9.25;;;2.28;;
47617;SDS011;33336;36.728;-4.414;2022-09-12T09:08:46;6.78;;;2.20;;
47617;SDS011;33336;36.728;-4.414;2022-09-12T09:14:03;6.32;;;2.20;;
47617;SDS011;33336;36.728;-4.414;2022-09-12T09:19:39;8.32;;;2.15;;
47617;SDS011;33336;36.728;-4.414;2022-09-12T09:24:50;7.00;;;2.53;;
47617;SDS011;33336;36.728;-4.414;2022-09-12T09:30:01;9.73;;;2.78;;
47617;SDS011;33336;36.728;-4.414;2022-09-12T09:35:10;7.72;;;2.50;;
47617;SDS011;33336;36.728;-4.414;2022-09-12T09:40:20;8.13;;;2.05;;
47617;SDS011;33336;36.728;-4.414;2022-09-12T09:45:29;10.13;;;3.30;;
47617;SDS011;33336;36.728;-4.414;2022-09-12T09:50:33;7.20;;;2.22;;
47617;SDS011;33336;36.728;-4.414;2022-09-12T09:55:39;11.57;;;2.65;;
47617;SDS011;33336;36.728;-4.414;2022-09-12T10:00:46;7.40;;;3.55;;
47617;SDS011;33336;36.728;-4.414;2022-09-12T10:05:49;6.85;;;2.67;;
47617;SDS011;33336;36.728;-4.414;2022-09-12T10:10:55;12.75;;;3.78;;
47617;SDS011;33336;36.728;-4.414;2022-09-12T10:16:05;13.27;;;4.78;;
47617;SDS011;33336;36.728;-4.414;2022-09-12T10:21:20;12.48;;;4.35;;
47617;SDS011;33336;36.728;-4.414;2022-09-12T10:26:33;8.18;;;3.55;;
47617;SDS011;33336;36.728;-4.414;2022-09-12T10:31:44;14.57;;;3.95;;
47617;SDS011;33336;36.728;-4.414;2022-09-12T10:36:52;11.35;;;4.03;;
47617;SDS011;33336;36.728;-4.414;2022-09-12T10:42:00;9.50;;;4.20;;
47617;SDS011;33336;36.728;-4.414;2022-09-12T10:47:19;5.97;;;3.25;;
47617;SDS011;33336;36.728;-4.414;2022-09-12T10:52:24;8.25;;;3.53;;
47617;SDS011;33336;36.728;-4.414;2022-09-12T10:57:42;7.32;;;2.85;;
47617;SDS011;33336;36.728;-4.414;2022-09-12T11:03:05;8.27;;;3.42;;
47617;SDS011;33336;36.728;-4.414;2022-09-12T11:08:20;8.53;;;3.50;;
47617;SDS011;33336;36.728;-4.414;2022-09-12T11:13:49;8.70;;;3.10;;
47617;SDS011;33336;36.728;-4.414;2022-09-12T11:19:08;9.90;;;3.17;;
47617;SDS011;33336;36.728;-4.414;2022-09-12T11:24:29;9.07;;;3.40;;
47617;SDS011;33336;36.728;-4.414;2022-09-12T11:29:47;11.13;;;3.17;;
47617;SDS011;33336;36.728;-4.414;2022-09-12T11:34:56;12.00;;;3.88;;
47617;SDS011;33336;36.728;-4.414;2022-09-12T11:40:06;10.07;;;3.22;;
47617;SDS011;33336;36.728;-4.414;2022-09-12T11:45:26;9.13;;;2.70;;
47617;SDS011;33336;36.728;-4.414;2022-09-12T11:50:32;7.80;;;3.30;;
47617;SDS011;33336;36.728;-4.414;2022-09-12T11:55:38;8.05;;;2.88;;
47617;SDS011;33336;36.728;-4.414;2022-09-12T12:00:49;10.30;;;3.10;;
47617;SDS011;33336;36.728;-4.414;2022-09-12T12:05:58;9.23;;;3.45;;
47617;SDS011;33336;36.728;-4.414;2022-09-12T12:11:05;7.57;;;3.10;;
47617;SDS011;33336;36.728;-4.414;2022-09-12T12:16:11;12.18;;;3.60;;
47617;SDS011;33336;36.728;-4.414;2022-09-12T12:21:28;15.18;;;2.80;;
47617;SDS011;33336;36.728;-4.414;2022-09-12T12:26:41;10.07;;;3.07;;
47617;SDS011;33336;36.728;-4.414;2022-09-12T12:32:18;9.82;;;2.88;;
47617;SDS011;33336;36.728;-4.414;2022-09-12T12:42:56;13.18;;;3.35;;
47617;SDS011;33336;36.728;-4.414;2022-09-12T12:48:08;11.30;;;2.85;;
47617;SDS011;33336;36.728;-4.414;2022-09-12T12:53:18;6.75;;;2.55;;
47617;SDS011;33336;36.728;-4.414;2022-09-12T12:58:27;9.57;;;2.30;;
47617;SDS011;33336;36.728;-4.414;2022-09-12T13:03:34;13.32;;;3.88;;
47617;SDS011;33336;36.728;-4.414;2022-09-12T13:08:40;7.78;;;3.22;;
47617;SDS011;33336;36.728;-4.414;2022-09-12T13:13:48;10.98;;;3.40;;
47617;SDS011;33336;36.728;-4.414;2022-09-12T13:18:54;10.48;;;3.13;;
47617;SDS011;33336;36.728;-4.414;2022-09-12T13:24:01;8.20;;;3.13;;
47617;SDS011;33336;36.728;-4.414;2022-09-12T13:29:10;10.48;;;3.13;;
47617;SDS011;33336;36.728;-4.414;2022-09-12T13:34:15;7.63;;;2.63;;
47617;SDS011;33336;36.728;-4.414;2022-09-12T13:39:24;6.57;;;2.83;;
47617;SDS011;33336;36.728;-4.414;2022-09-12T13:44:28;14.55;;;2.65;;
47617;SDS011;33336;36.728;-4.414;2022-09-12T13:49:34;8.05;;;2.55;;
47617;SDS011;33336;36.728;-4.414;2022-09-12T13:54:40;13.43;;;3.20;;
47617;SDS011;33336;36.728;-4.414;2022-09-12T13:59:48;17.83;;;4.55;;
47617;SDS011;33336;36.728;-4.414;2022-09-12T14:04:56;11.52;;;3.08;;
47617;SDS011;33336;36.728;-4.414;2022-09-12T14:10:14;9.57;;;2.83;;
47617;SDS011;33336;36.728;-4.414;2022-09-12T14:15:22;12.70;;;3.08;;
47617;SDS011;33336;36.728;-4.414;2022-09-12T14:20:28;9.77;;;2.47;;
47617;SDS011;33336;36.728;-4.414;2022-09-12T14:25:35;6.80;;;1.83;;
47617;SDS011;33336;36.728;-4.414;2022-09-12T14:30:41;12.75;;;2.65;;
47617;SDS011;33336;36.728;-4.414;2022-09-12T14:36:14;12.25;;;2.35;;
47617;SDS011;33336;36.728;-4.414;2022-09-12T14:41:26;12.48;;;3.20;;
47617;SDS011;33336;36.728;-4.414;2022-09-12T14:46:31;13.32;;;2.13;;
47617;SDS011;33336;36.728;-4.414;2022-09-12T14:51:37;8.88;;;3.00;;
47617;SDS011;33336;36.728;-4.414;2022-09-12T14:56:52;8.65;;;2.58;;
47617;SDS011;33336;36.728;-4.414;2022-09-12T15:07:27;13.65;;;2.70;;
47617;SDS011;33336;36.728;-4.414;2022-09-12T15:12:37;14.32;;;3.28;;
47617;SDS011;33336;36.728;-4.414;2022-09-12T15:17:39;13.55;;;3.75;;
47617;SDS011;33336;36.728;-4.414;2022-09-12T15:22:44;18.38;;;3.53;;
47617;SDS011;33336;36.728;-4.414;2022-09-12T15:27:48;15.02;;;3.10;;
47617;SDS011;33336;36.728;-4.414;2022-09-12T15:32:52;18.73;;;3.20;;
47617;SDS011;33336;36.728;-4.414;2022-09-12T15:37:55;12.73;;;3.40;;
47617;SDS011;33336;36.728;-4.414;2022-09-12T15:43:01;18.45;;;4.20;;
47617;SDS011;33336;36.728;-4.414;2022-09-12T15:48:03;18.40;;;4.13;;
47617;SDS011;33336;36.728;-4.414;2022-09-12T15:53:09;11.18;;;2.53;;
47617;SDS011;33336;36.728;-4.414;2022-09-12T15:58:17;8.77;;;3.13;;
47617;SDS011;33336;36.728;-4.414;2022-09-12T16:03:22;14.57;;;2.55;;
47617;SDS011;33336;36.728;-4.414;2022-09-12T16:08:26;16.17;;;2.90;;
47617;SDS011;33336;36.728;-4.414;2022-09-12T16:13:34;9.95;;;2.88;;
47617;SDS011;33336;36.728;-4.414;2022-09-12T16:18:37;12.07;;;2.87;;
47617;SDS011;33336;36.728;-4.414;2022-09-12T16:23:42;7.28;;;2.30;;
47617;SDS011;33336;36.728;-4.414;2022-09-12T16:28:46;11.88;;;3.30;;
47617;SDS011;33336;36.728;-4.414;2022-09-12T16:33:56;7.22;;;2.75;;
47617;SDS011;33336;36.728;-4.414;2022-09-12T16:38:59;12.82;;;2.40;;
47617;SDS011;33336;36.728;-4.414;2022-09-12T16:44:04;15.20;;;2.75;;
47617;SDS011;33336;36.728;-4.414;2022-09-12T16:49:08;6.00;;;2.27;;
47617;SDS011;33336;36.728;-4.414;2022-09-12T16:54:13;10.02;;;3.35;;
47617;SDS011;33336;36.728;-4.414;2022-09-12T16:59:18;18.10;;;2.95;;
47617;SDS011;33336;36.728;-4.414;2022-09-12T17:04:22;12.55;;;2.75;;
47617;SDS011;33336;36.728;-4.414;2022-09-12T17:09:25;10.68;;;2.58;;
47617;SDS011;33336;36.728;-4.414;2022-09-12T17:14:30;15.10;;;4.20;;
47617;SDS011;33336;36.728;-4.414;2022-09-12T17:19:33;13.27;;;2.85;;
47617;SDS011;33336;36.728;-4.414;2022-09-12T17:24:37;31.27;;;5.32;;
47617;SDS011;33336;36.728;-4.414;2022-09-12T17:29:41;31.05;;;4.32;;
47617;SDS011;33336;36.728;-4.414;2022-09-12T17:34:45;20.40;;;4.00;;
47617;SDS011;33336;36.728;-4.414;2022-09-12T17:39:48;16.75;;;3.65;;
47617;SDS011;33336;36.728;-4.414;2022-09-12T17:44:53;18.95;;;3.97;;
47617;SDS011;33336;36.728;-4.414;2022-09-12T17:49:58;16.83;;;4.20;;
47617;SDS011;33336;36.728;-4.414;2022-09-12T17:55:02;16.55;;;3.92;;
47617;SDS011;33336;36.728;-4.414;2022-09-12T18:00:07;13.68;;;3.25;;
47617;SDS011;33336;36.728;-4.414;2022-09-12T18:05:12;13.05;;;4.05;;
47617;SDS011;33336;36.728;-4.414;2022-09-12T18:10:15;13.90;;;5.30;;
47617;SDS011;33336;36.728;-4.414;2022-09-12T18:15:19;8.25;;;2.85;;
47617;SDS011;33336;36.728;-4.414;2022-09-12T18:20:23;10.25;;;3.10;;
47617;SDS011;33336;36.728;-4.414;2022-09-12T18:25:26;13.68;;;3.28;;
47617;SDS011;33336;36.728;-4.414;2022-09-12T18:30:30;12.88;;;3.25;;
47617;SDS011;33336;36.728;-4.414;2022-09-12T18:35:32;11.38;;;2.92;;
47617;SDS011;33336;36.728;-4.414;2022-09-12T18:40:39;9.43;;;3.17;;
47617;SDS011;33336;36.728;-4.414;2022-09-12T18:45:43;11.23;;;3.13;;
47617;SDS011;33336;36.728;-4.414;2022-09-12T18:50:47;11.23;;;3.92;;
47617;SDS011;33336;36.728;-4.414;2022-09-12T18:55:50;16.27;;;6.25;;
47617;SDS011;33336;36.728;-4.414;2022-09-12T19:00:55;13.32;;;3.40;;
47617;SDS011;33336;36.728;-4.414;2022-09-12T19:05:58;49.63;;;13.45;;
47617;SDS011;33336;36.728;-4.414;2022-09-12T19:11:02;26.17;;;6.78;;
47617;SDS011;33336;36.728;-4.414;2022-09-12T19:16:08;8.57;;;3.50;;
47617;SDS011;33336;36.728;-4.414;2022-09-12T19:21:13;6.57;;;2.53;;
47617;SDS011;33336;36.728;-4.414;2022-09-12T19:26:17;10.52;;;3.45;;
47617;SDS011;33336;36.728;-4.414;2022-09-12T19:31:22;9.80;;;2.65;;
47617;SDS011;33336;36.728;-4.414;2022-09-12T19:36:26;10.27;;;2.67;;
47617;SDS011;33336;36.728;-4.414;2022-09-12T19:41:30;11.65;;;3.00;;
47617;SDS011;33336;36.728;-4.414;2022-09-12T19:46:35;9.23;;;2.97;;
47617;SDS011;33336;36.728;-4.414;2022-09-12T19:51:39;9.52;;;3.35;;
47617;SDS011;33336;36.728;-4.414;2022-09-12T19:56:43;11.45;;;2.83;;
47617;SDS011;33336;36.728;-4.414;2022-09-12T20:01:49;11.13;;;3.42;;
47617;SDS011;33336;36.728;-4.414;2022-09-12T20:06:51;8.52;;;3.13;;
47617;SDS011;33336;36.728;-4.414;2022-09-12T20:11:56;7.15;;;3.53;;
47617;SDS011;33336;36.728;-4.414;2022-09-12T20:17:00;8.88;;;3.03;;
47617;SDS011;33336;36.728;-4.414;2022-09-12T20:22:04;8.93;;;3.58;;
47617;SDS011;33336;36.728;-4.414;2022-09-12T20:27:07;10.45;;;3.45;;
47617;SDS011;33336;36.728;-4.414;2022-09-12T20:32:12;12.52;;;3.47;;
47617;SDS011;33336;36.728;-4.414;2022-09-12T20:37:15;8.25;;;2.80;;
47617;SDS011;33336;36.728;-4.414;2022-09-12T20:42:19;6.63;;;2.65;;
47617;SDS011;33336;36.728;-4.414;2022-09-12T20:47:23;10.57;;;3.15;;
47617;SDS011;33336;36.728;-4.414;2022-09-12T20:52:26;12.02;;;5.60;;
47617;SDS011;33336;36.728;-4.414;2022-09-12T20:57:30;9.05;;;2.58;;
47617;SDS011;33336;36.728;-4.414;2022-09-12T21:02:34;11.07;;;2.67;;
47617;SDS011;33336;36.728;-4.414;2022-09-12T21:07:38;10.93;;;2.60;;
47617;SDS011;33336;36.728;-4.414;2022-09-12T21:12:41;7.90;;;3.33;;
47617;SDS011;33336;36.728;-4.414;2022-09-12T21:17:46;10.93;;;3.40;;
47617;SDS011;33336;36.728;-4.414;2022-09-12T21:22:49;9.33;;;3.03;;
47617;SDS011;33336;36.728;-4.414;2022-09-12T21:27:53;12.60;;;3.65;;
47617;SDS011;33336;36.728;-4.414;2022-09-12T21:32:57;7.97;;;2.70;;
47617;SDS011;33336;36.728;-4.414;2022-09-12T21:38:01;10.75;;;3.25;;
47617;SDS011;33336;36.728;-4.414;2022-09-12T21:43:04;9.20;;;3.15;;
47617;SDS011;33336;36.728;-4.414;2022-09-12T21:48:09;8.93;;;3.88;;
47617;SDS011;33336;36.728;-4.414;2022-09-12T21:53:12;10.30;;;2.75;;
47617;SDS011;33336;36.728;-4.414;2022-09-12T21:58:16;7.75;;;2.67;;
47617;SDS011;33336;36.728;-4.414;2022-09-12T22:03:21;4.80;;;2.05;;
47617;SDS011;33336;36.728;-4.414;2022-09-12T22:08:25;9.30;;;2.92;;
47617;SDS011;33336;36.728;-4.414;2022-09-12T22:13:28;13.18;;;2.78;;
47617;SDS011;33336;36.728;-4.414;2022-09-12T22:18:34;16.50;;;2.65;;
47617;SDS011;33336;36.728;-4.414;2022-09-12T22:23:38;12.07;;;2.83;;
47617;SDS011;33336;36.728;-4.414;2022-09-12T22:28:59;8.48;;;2.95;;
47617;SDS011;33336;36.728;-4.414;2022-09-12T22:34:07;8.80;;;3.45;;
47617;SDS011;33336;36.728;-4.414;2022-09-12T22:39:12;12.50;;;3.55;;
47617;SDS011;33336;36.728;-4.414;2022-09-12T22:44:14;12.38;;;3.60;;
47617;SDS011;33336;36.728;-4.414;2022-09-12T22:49:22;13.27;;;2.95;;
47617;SDS011;33336;36.728;-4.414;2022-09-12T22:54:26;7.97;;;3.00;;
47617;SDS011;33336;36.728;-4.414;2022-09-12T22:59:30;14.68;;;3.70;;
47617;SDS011;33336;36.728;-4.414;2022-09-12T23:04:34;14.30;;;3.38;;
47617;SDS011;33336;36.728;-4.414;2022-09-12T23:09:38;18.40;;;5.63;;
47617;SDS011;33336;36.728;-4.414;2022-09-12T23:14:41;15.00;;;4.10;;
47617;SDS011;33336;36.728;-4.414;2022-09-12T23:19:46;23.95;;;5.47;;
47617;SDS011;33336;36.728;-4.414;2022-09-12T23:24:49;7.65;;;4.35;;
47617;SDS011;33336;36.728;-4.414;2022-09-12T23:29:52;13.55;;;5.03;;
47617;SDS011;33336;36.728;-4.414;2022-09-12T23:34:56;14.05;;;4.75;;
47617;SDS011;33336;36.728;-4.414;2022-09-12T23:40:00;10.57;;;4.53;;
47617;SDS011;33336;36.728;-4.414;2022-09-12T23:45:03;13.40;;;5.10;;
47617;SDS011;33336;36.728;-4.414;2022-09-12T23:50:09;15.68;;;4.30;;
47617;SDS011;33336;36.728;-4.414;2022-09-12T23:55:12;11.50;;;5.30;;
